^^
Meteo Knjazevac Station Historical Data
Daily Summary for May 27, 2022 Units:  Metric    English   Both
Daily Weekly Monthly Yearly Custom
  High: Low: Average:
Temperature: 31.8 °C 10.7 °C 21.8 °C
Dew Point: 17.3 °C 8.9 °C 13.6 °C
Humidity: 91% 38% 64%
Wind Speed: 11.3km/h 0km/h 2.3km/h
Wind Gust: 17.7km/h - -
Wind- - South
Pressure: 1023.6 hPa 1015.5 hPa -
Precipitation: 0 mm    
Historical Graphs
 
 
Tabular Data for May 27, 2022
Time Temperature Dew Point Pressure Wind Wind Speed Wind Gust Humidity Rainfall Rate (Hourly) solar Conditions
00:00 16.3 °C 12.6 °C 1023.2 hPa NW 1.6 km/h 3.2 km/h 79% 0 mm 0 W/m2
00:10 16.1 °C 12.4 °C 1023.2 hPa NW 1.6 km/h 3.2 km/h 79% 0 mm 0 W/m2
00:20 15.7 °C 12.1 °C 1023.2 hPa West 1.6 km/h 3.2 km/h 79% 0 mm 0 W/m2
00:30 15.6 °C 12.1 °C 1023.2 hPa Calm   3.2 km/h 80% 0 mm 0 W/m2
00:40 15.2 °C 11.8 °C 1023.6 hPa Calm   4.8 km/h 80% 0 mm 0 W/m2
00:50 15 °C 11.8 °C 1023.6 hPa Calm   3.2 km/h 81% 0 mm 0 W/m2
01:00 14.8 °C 11.6 °C 1023.6 hPa Calm     81% 0 mm 0 W/m2
01:10 14.6 °C 11.4 °C 1023.6 hPa Calm   1.6 km/h 81% 0 mm 0 W/m2
01:20 14.5 °C 11.3 °C 1023.6 hPa WSW 1.6 km/h 3.2 km/h 81% 0 mm 0 W/m2
01:30 14.3 °C 11.4 °C 1023.2 hPa Calm   3.2 km/h 83% 0 mm 0 W/m2
01:40 14.3 °C 11.4 °C 1023.2 hPa Calm   3.2 km/h 83% 0 mm 0 W/m2
01:50 14.1 °C 11.3 °C 1023.2 hPa North 1.6 km/h 3.2 km/h 83% 0 mm 0 W/m2
02:00 13.9 °C 11.1 °C 1023.2 hPa Calm   3.2 km/h 83% 0 mm 0 W/m2
02:10 13.6 °C 10.8 °C 1023.2 hPa Calm   3.2 km/h 83% 0 mm 0 W/m2
02:20 13.2 °C 10.6 °C 1023.2 hPa West 3.2 km/h 4.8 km/h 84% 0 mm 0 W/m2
02:30 13 °C 10.3 °C 1023.2 hPa West 4.8 km/h 8 km/h 84% 0 mm 0 W/m2
02:40 12.8 °C 10.3 °C 1023.2 hPa WNW 1.6 km/h 9.7 km/h 85% 0 mm 0 W/m2
02:50 12.7 °C 10.1 °C 1022.9 hPa WNW 1.6 km/h 4.8 km/h 84% 0 mm 0 W/m2
03:00 12.4 °C 9.9 °C 1022.9 hPa West 1.6 km/h 4.8 km/h 85% 0 mm 0 W/m2
03:10 12.4 °C 9.9 °C 1022.9 hPa Calm   4.8 km/h 85% 0 mm 0 W/m2
03:20 12.4 °C 9.9 °C 1023.2 hPa Calm   3.2 km/h 85% 0 mm 0 W/m2
03:30 12.4 °C 9.9 °C 1022.9 hPa Calm   3.2 km/h 85% 0 mm 0 W/m2
03:40 12.3 °C 9.8 °C 1022.9 hPa Calm   1.6 km/h 85% 0 mm 0 W/m2
03:50 12.1 °C 9.7 °C 1022.9 hPa Calm   3.2 km/h 85% 0 mm 0 W/m2
04:00 11.9 °C 9.6 °C 1022.9 hPa West 1.6 km/h 3.2 km/h 86% 0 mm 0 W/m2
04:10 11.7 °C 9.4 °C 1022.9 hPa West 1.6 km/h 3.2 km/h 86% 0 mm 0 W/m2
04:20 11.6 °C 9.3 °C 1022.9 hPa WSW 1.6 km/h 3.2 km/h 86% 0 mm 0 W/m2
04:30 11.3 °C 9.1 °C 1022.9 hPa Calm   3.2 km/h 86% 0 mm 0 W/m2
04:40 11.3 °C 9.4 °C 1022.9 hPa NW 3.2 km/h 4.8 km/h 88% 0 mm 0 W/m2
04:50 11.3 °C 9.4 °C 1022.9 hPa Calm   3.2 km/h 88% 0 mm 0 W/m2
05:00 11.2 °C 9.3 °C 1022.9 hPa Calm   1.6 km/h 88% 0 mm 4 W/m2
05:10 11.1 °C 9.2 °C 1022.9 hPa Calm   1.6 km/h 88% 0 mm 9 W/m2
05:20 11 °C 9.1 °C 1022.9 hPa West 1.6 km/h 3.2 km/h 88% 0 mm 15 W/m2
05:30 10.8 °C 9.1 °C 1022.9 hPa WSW 1.6 km/h 4.8 km/h 89% 0 mm 27 W/m2
05:40 10.7 °C 8.9 °C 1022.9 hPa West 3.2 km/h 4.8 km/h 89% 0 mm 37 W/m2
05:50 10.8 °C 9.2 °C 1022.9 hPa WNW 1.6 km/h 4.8 km/h 90% 0 mm 47 W/m2
06:00 10.9 °C 9.6 °C 1022.9 hPa WNW 1.6 km/h 4.8 km/h 91% 0 mm 58 W/m2
06:10 11.2 °C 9.6 °C 1022.9 hPa Calm   3.2 km/h 90% 0 mm 96 W/m2
06:20 11.2 °C 9.6 °C 1023.2 hPa Calm   3.2 km/h 90% 0 mm 122 W/m2
06:30 11.3 °C 9.7 °C 1022.9 hPa Calm   3.2 km/h 90% 0 mm 145 W/m2
06:40 11.6 °C 10 °C 1022.9 hPa Calm   3.2 km/h 90% 0 mm 171 W/m2
06:50 11.9 °C 10.3 °C 1022.9 hPa Calm   3.2 km/h 90% 0 mm 195 W/m2
07:00 12.3 °C 10.7 °C 1022.9 hPa Calm   3.2 km/h 90% 0 mm 219 W/m2
07:10 12.7 °C 11.2 °C 1022.9 hPa NNW 1.6 km/h 3.2 km/h 91% 0 mm 250 W/m2
07:20 13.2 °C 11.7 °C 1022.9 hPa WNW 1.6 km/h 3.2 km/h 91% 0 mm 284 W/m2
07:30 13.8 °C 12.2 °C 1022.9 hPa WSW 1.6 km/h 3.2 km/h 90% 0 mm 316 W/m2
07:40 14.3 °C 12.5 °C 1022.9 hPa WSW 1.6 km/h 3.2 km/h 89% 0 mm 345 W/m2
07:50 14.8 °C 12.8 °C 1022.9 hPa SSW 1.6 km/h 3.2 km/h 88% 0 mm 376 W/m2
08:00 15.3 °C 12.9 °C 1022.9 hPa SSW 1.6 km/h 4.8 km/h 86% 0 mm 408 W/m2
08:10 15.9 °C 13.3 °C 1022.9 hPa SW 3.2 km/h 4.8 km/h 85% 0 mm 444 W/m2
08:20 16.9 °C 13.9 °C 1022.9 hPa WSW 1.6 km/h 4.8 km/h 83% 0 mm 477 W/m2
08:30 18 °C 14.1 °C 1022.6 hPa SW 3.2 km/h 4.8 km/h 78% 0 mm 519 W/m2
08:40 19 °C 14.2 °C 1022.6 hPa WSW 3.2 km/h 8 km/h 74% 0 mm 553 W/m2
08:50 19.9 °C 14.7 °C 1022.2 hPa SW 3.2 km/h 8 km/h 72% 0 mm 583 W/m2
09:00 20.6 °C 14.7 °C 1022.2 hPa South 3.2 km/h 4.8 km/h 69% 0 mm 599 W/m2
09:10 21.4 °C 15.2 °C 1022.2 hPa West 3.2 km/h 6.4 km/h 68% 0 mm 623 W/m2
09:20 22 °C 15.1 °C 1022.2 hPa West 1.6 km/h 4.8 km/h 65% 0 mm 662 W/m2
09:30 22.6 °C 14.4 °C 1022.2 hPa North 3.2 km/h 9.7 km/h 60% 0 mm 695 W/m2
09:40 23 °C 14.8 °C 1021.9 hPa ENE 1.6 km/h 9.7 km/h 60% 0 mm 717 W/m2
09:50 23.7 °C 14.9 °C 1021.9 hPa SSE 1.6 km/h 8 km/h 58% 0 mm 743 W/m2
10:00 24.4 °C 15.3 °C 1021.9 hPa SSW 1.6 km/h 6.4 km/h 57% 0 mm 766 W/m2
10:10 24.8 °C 14.6 °C 1021.9 hPa East 4.8 km/h 9.7 km/h 53% 0 mm 792 W/m2
10:20 25.2 °C 13.7 °C 1021.6 hPa East 3.2 km/h 9.7 km/h 49% 0 mm 812 W/m2
10:30 25.6 °C 13.8 °C 1021.6 hPa NNE 3.2 km/h 11.3 km/h 48% 0 mm 832 W/m2
10:40 25.9 °C 13.1 °C 1021.6 hPa ENE 8 km/h 12.9 km/h 45% 0 mm 170 W/m2
10:50 26 °C 12.4 °C 1021.2 hPa ESE 3.2 km/h 9.7 km/h 43% 0 mm 360 W/m2
11:00 26.4 °C 13.5 °C 1021.2 hPa NNE 1.6 km/h 11.3 km/h 45% 0 mm 398 W/m2
11:10 26.8 °C 13.8 °C 1021.2 hPa ENE 4.8 km/h 11.3 km/h 45% 0 mm 281 W/m2
11:20 27.1 °C 13.1 °C 1021.2 hPa NNE 1.6 km/h 9.7 km/h 42% 0 mm 822 W/m2
11:30 27.5 °C 13.8 °C 1020.9 hPa NE 4.8 km/h 12.9 km/h 43% 0 mm 922 W/m2
11:40 27.8 °C 12.9 °C 1020.9 hPa NE 4.8 km/h 12.9 km/h 40% 0 mm 933 W/m2
11:50 28 °C 12.8 °C 1020.9 hPa NE 4.8 km/h 11.3 km/h 39% 0 mm 942 W/m2
12:00 28.4 °C 14.2 °C 1020.9 hPa NNE 1.6 km/h 12.9 km/h 42% 0 mm 950 W/m2
12:10 28.8 °C 14.6 °C 1020.5 hPa East 4.8 km/h 14.5 km/h 42% 0 mm 951 W/m2
12:20 28.9 °C 13.9 °C 1020.5 hPa ENE 3.2 km/h 17.7 km/h 40% 0 mm 926 W/m2
12:30 29.1 °C 13.7 °C 1020.5 hPa NNE 3.2 km/h 11.3 km/h 39% 0 mm 603 W/m2
12:40 29.1 °C 14.1 °C 1020.2 hPa NNE 11.3 km/h 16.1 km/h 40% 0 mm 415 W/m2
12:50 29.2 °C 14.2 °C 1020.2 hPa ENE 4.8 km/h 12.9 km/h 40% 0 mm 912 W/m2
13:00 29.6 °C 14.6 °C 1019.9 hPa NE 9.7 km/h 12.9 km/h 40% 0 mm 477 W/m2
13:10 29.8 °C 14.7 °C 1019.9 hPa North 8 km/h 14.5 km/h 40% 0 mm 950 W/m2
13:20 29.9 °C 14.4 °C 1019.9 hPa ENE 4.8 km/h 16.1 km/h 39% 0 mm 943 W/m2
13:30 29.7 °C 14.3 °C 1019.5 hPa East 8 km/h 14.5 km/h 39% 0 mm 934 W/m2
13:40 29.9 °C 14.4 °C 1019.5 hPa NE 3.2 km/h 14.5 km/h 39% 0 mm 922 W/m2
13:50 30.1 °C 14.6 °C 1019.2 hPa NNW 3.2 km/h 14.5 km/h 39% 0 mm 898 W/m2
14:00 30.3 °C 14.8 °C 1019.2 hPa NNW 3.2 km/h 14.5 km/h 39% 0 mm 890 W/m2
14:10 30.5 °C 14.6 °C 1018.8 hPa NE 3.2 km/h 12.9 km/h 38% 0 mm 873 W/m2
14:20 30.4 °C 16.1 °C 1018.8 hPa ENE 4.8 km/h 11.3 km/h 42% 0 mm 860 W/m2
14:30 30.7 °C 15.2 °C 1018.5 hPa NNE 1.6 km/h 12.9 km/h 39% 0 mm 841 W/m2
14:40 30.8 °C 15.2 °C 1018.5 hPa South 1.6 km/h 8 km/h 39% 0 mm 821 W/m2
14:50 30.7 °C 15.2 °C 1018.2 hPa ENE 3.2 km/h 11.3 km/h 39% 0 mm 797 W/m2
15:00 31.2 °C 15.6 °C 1017.8 hPa North 4.8 km/h 11.3 km/h 39% 0 mm 776 W/m2
15:10 31.4 °C 15.8 °C 1017.8 hPa North 1.6 km/h 11.3 km/h 39% 0 mm 752 W/m2
15:20 31.6 °C 15.9 °C 1017.8 hPa NNW 3.2 km/h 6.4 km/h 39% 0 mm 717 W/m2
15:30 31.6 °C 15.6 °C 1017.5 hPa North 3.2 km/h 12.9 km/h 38% 0 mm 690 W/m2
15:40 31.7 °C 15.6 °C 1017.5 hPa NNW 4.8 km/h 12.9 km/h 38% 0 mm 667 W/m2
15:50 31.8 °C 16.1 °C 1017.5 hPa North 4.8 km/h 12.9 km/h 39% 0 mm 641 W/m2
16:00 31.7 °C 16.1 °C 1017.2 hPa NE 8 km/h 12.9 km/h 39% 0 mm 634 W/m2
16:10 31.7 °C 16.1 °C 1017.2 hPa NNE 3.2 km/h 12.9 km/h 39% 0 mm 423 W/m2
16:20 31.3 °C 15.7 °C 1017.2 hPa NNW 3.2 km/h 12.9 km/h 39% 0 mm 375 W/m2
16:30 31.2 °C 16 °C 1016.8 hPa North 3.2 km/h 8 km/h 40% 0 mm 376 W/m2
16:40 31 °C 15.4 °C 1016.5 hPa NNE 3.2 km/h 8 km/h 39% 0 mm 405 W/m2
16:50 31.1 °C 15.5 °C 1016.5 hPa NNE 3.2 km/h 8 km/h 39% 0 mm 404 W/m2
17:00 31.1 °C 15.5 °C 1016.5 hPa NW 1.6 km/h 4.8 km/h 39% 0 mm 365 W/m2
17:10 31.1 °C 15.5 °C 1016.1 hPa North 4.8 km/h 9.7 km/h 39% 0 mm 370 W/m2
17:20 31.2 °C 16 °C 1016.1 hPa Calm   8 km/h 40% 0 mm 372 W/m2
17:30 31.2 °C 15.6 °C 1016.1 hPa ENE 1.6 km/h 8 km/h 39% 0 mm 204 W/m2
17:40 31.1 °C 15.5 °C 1016.1 hPa SSE 1.6 km/h 4.8 km/h 39% 0 mm 339 W/m2
17:50 31.2 °C 16 °C 1015.8 hPa SW 1.6 km/h 6.4 km/h 40% 0 mm 292 W/m2
18:00 31.1 °C 15.5 °C 1015.8 hPa South 1.6 km/h 8 km/h 39% 0 mm 238 W/m2
18:10 30.9 °C 15.3 °C 1015.8 hPa South 3.2 km/h 8 km/h 39% 0 mm 150 W/m2
18:20 30.6 °C 15.4 °C 1015.8 hPa South 3.2 km/h 9.7 km/h 40% 0 mm 104 W/m2
18:30 30.2 °C 15.9 °C 1015.8 hPa South 1.6 km/h 8 km/h 42% 0 mm 81 W/m2
18:40 29.9 °C 15.9 °C 1015.8 hPa SSW 1.6 km/h 4.8 km/h 43% 0 mm 73 W/m2
18:50 29.6 °C 16.4 °C 1015.8 hPa SSW 1.6 km/h 4.8 km/h 45% 0 mm 94 W/m2
19:00 29.2 °C 16.7 °C 1015.8 hPa SSW 1.6 km/h 6.4 km/h 47% 0 mm 85 W/m2
19:10 28.6 °C 16.8 °C 1015.8 hPa South 4.8 km/h 8 km/h 49% 0 mm 72 W/m2
19:20 28.1 °C 17.3 °C 1015.8 hPa SSW 1.6 km/h 6.4 km/h 52% 0 mm 53 W/m2
19:30 27.7 °C 17.3 °C 1015.5 hPa SW 1.6 km/h 4.8 km/h 53% 0 mm 32 W/m2
19:40 27.2 °C 17.1 °C 1015.8 hPa SW 1.6 km/h 4.8 km/h 54% 0 mm 16 W/m2
19:50 26.6 °C 16.8 °C 1015.8 hPa SSE 1.6 km/h 6.4 km/h 55% 0 mm 9 W/m2
20:00 26 °C 17.1 °C 1015.8 hPa South 1.6 km/h 8 km/h 58% 0 mm 3 W/m2
20:10 25.4 °C 16.8 °C 1015.8 hPa South 3.2 km/h 8 km/h 59% 0 mm 0 W/m2
20:20 25 °C 16.7 °C 1015.8 hPa SSW 1.6 km/h 4.8 km/h 60% 0 mm 0 W/m2
20:30 24.6 °C 16.8 °C 1015.8 hPa SW 1.6 km/h 3.2 km/h 62% 0 mm 0 W/m2
20:40 24.1 °C 16.6 °C 1015.8 hPa SSW 1.6 km/h 3.2 km/h 63% 0 mm 0 W/m2
20:50 23.7 °C 16.5 °C 1016.1 hPa SW 1.6 km/h 3.2 km/h 64% 0 mm 0 W/m2
21:00 23.3 °C 16.1 °C 1016.1 hPa WSW 1.6 km/h 3.2 km/h 64% 0 mm 0 W/m2
21:10 22.9 °C 15.9 °C 1016.1 hPa Calm   3.2 km/h 65% 0 mm 0 W/m2
21:20 22.5 °C 16.1 °C 1016.5 hPa WSW 1.6 km/h 3.2 km/h 67% 0 mm 0 W/m2
21:30 22.1 °C 15.9 °C 1016.5 hPa Calm   3.2 km/h 68% 0 mm 0 W/m2
21:40 21.7 °C 15.6 °C 1016.5 hPa Calm   1.6 km/h 68% 0 mm 0 W/m2
21:50 21.4 °C 15.5 °C 1016.5 hPa Calm   3.2 km/h 69% 0 mm 0 W/m2
22:00 21.1 °C 15.2 °C 1016.5 hPa SSW 3.2 km/h 8 km/h 69% 0 mm 0 W/m2
22:10 20.7 °C 15.1 °C 1016.1 hPa SE 1.6 km/h 8 km/h 70% 0 mm 0 W/m2
22:20 20.5 °C 14.8 °C 1016.1 hPa Calm   1.6 km/h 70% 0 mm 0 W/m2
22:30 20.2 °C 15 °C 1016.1 hPa Calm   4.8 km/h 72% 0 mm 0 W/m2
22:40 19.9 °C 14.9 °C 1016.1 hPa Calm   3.2 km/h 73% 0 mm 0 W/m2
22:50 19.6 °C 14.6 °C 1016.1 hPa NW 1.6 km/h 4.8 km/h 73% 0 mm 0 W/m2
23:00 19.3 °C 14.6 °C 1016.1 hPa Calm   3.2 km/h 74% 0 mm 0 W/m2
23:10 19.1 °C 14.3 °C 1016.1 hPa Calm   6.4 km/h 74% 0 mm 0 W/m2
23:20 18.9 °C 14.2 °C 1016.1 hPa Calm   3.2 km/h 74% 0 mm 0 W/m2
23:30 18.4 °C 13.9 °C 1016.1 hPa Calm   3.2 km/h 75% 0 mm 0 W/m2
23:40 18.2 °C 14.1 °C 1016.1 hPa West 1.6 km/h 6.4 km/h 77% 0 mm 0 W/m2
23:50 17.9 °C 14 °C 1016.1 hPa West 3.2 km/h 6.4 km/h 78% 0 mm 0 W/m2
Knjazevac, Serbia
Compliments of Weather Underground - 2 mb